sensor_id;sensor_type;location;lat;lon;timestamp;pressure;altitude;pressure_sealevel;temperature;humidity
55733;BME280;41637;52.364;9.910;2023-01-30T00:01:25;100678.66;;;2.89;89.08
55733;BME280;41637;52.364;9.910;2023-01-30T00:03:52;100674.95;;;2.89;89.22
55733;BME280;41637;52.364;9.910;2023-01-30T00:06:20;100662.29;;;2.88;89.04
55733;BME280;41637;52.364;9.910;2023-01-30T00:08:46;100642.99;;;2.87;88.73
55733;BME280;41637;52.364;9.910;2023-01-30T00:11:15;100622.33;;;2.90;88.79
55733;BME280;41637;52.364;9.910;2023-01-30T00:13:42;100604.42;;;2.89;88.56
55733;BME280;41637;52.364;9.910;2023-01-30T00:16:10;100613.03;;;2.90;88.99
55733;BME280;41637;52.364;9.910;2023-01-30T00:18:38;100616.86;;;2.92;88.80
55733;BME280;41637;52.364;9.910;2023-01-30T00:21:07;100610.45;;;2.94;88.80
55733;BME280;41637;52.364;9.910;2023-01-30T00:23:36;100610.97;;;2.94;88.58
55733;BME280;41637;52.364;9.910;2023-01-30T00:26:04;100616.89;;;2.94;88.53
55733;BME280;41637;52.364;9.910;2023-01-30T00:28:32;100628.81;;;2.89;88.75
55733;BME280;41637;52.364;9.910;2023-01-30T00:30:59;100634.83;;;2.88;88.97
55733;BME280;41637;52.364;9.910;2023-01-30T00:33:26;100625.32;;;2.87;89.09
55733;BME280;41637;52.364;9.910;2023-01-30T00:35:55;100618.53;;;2.86;89.01
55733;BME280;41637;52.364;9.910;2023-01-30T00:38:22;100624.20;;;2.88;89.11
55733;BME280;41637;52.364;9.910;2023-01-30T00:40:50;100627.31;;;2.88;89.17
55733;BME280;41637;52.364;9.910;2023-01-30T00:43:18;100624.49;;;2.91;89.03
55733;BME280;41637;52.364;9.910;2023-01-30T00:46:37;100618.13;;;2.94;89.03
55733;BME280;41637;52.364;9.910;2023-01-30T00:49:24;100604.63;;;2.98;88.99
55733;BME280;41637;52.364;9.910;2023-01-30T00:51:51;100594.15;;;3.03;89.36
55733;BME280;41637;52.364;9.910;2023-01-30T00:54:18;100581.97;;;3.04;90.00
55733;BME280;41637;52.364;9.910;2023-01-30T00:56:45;100578.23;;;3.07;90.07
55733;BME280;41637;52.364;9.910;2023-01-30T00:59:11;100582.40;;;3.08;90.27
55733;BME280;41637;52.364;9.910;2023-01-30T01:01:39;100573.29;;;3.10;90.38
55733;BME280;41637;52.364;9.910;2023-01-30T01:04:07;100563.86;;;3.12;90.55
55733;BME280;41637;52.364;9.910;2023-01-30T01:06:37;100558.23;;;3.12;90.67
55733;BME280;41637;52.364;9.910;2023-01-30T01:09:04;100562.77;;;3.12;91.31
55733;BME280;41637;52.364;9.910;2023-01-30T01:11:32;100556.48;;;3.12;91.67
55733;BME280;41637;52.364;9.910;2023-01-30T01:14:00;100560.96;;;3.09;92.16
55733;BME280;41637;52.364;9.910;2023-01-30T01:16:31;100551.42;;;3.06;93.20
55733;BME280;41637;52.364;9.910;2023-01-30T01:19:08;100556.27;;;3.02;93.74
55733;BME280;41637;52.364;9.910;2023-01-30T01:21:34;100542.55;;;2.99;93.82
55733;BME280;41637;52.364;9.910;2023-01-30T01:24:02;100520.11;;;2.92;93.72
55733;BME280;41637;52.364;9.910;2023-01-30T01:26:29;100517.37;;;2.97;93.64
55733;BME280;41637;52.364;9.910;2023-01-30T01:28:56;100509.52;;;2.97;93.71
55733;BME280;41637;52.364;9.910;2023-01-30T01:31:24;100505.20;;;2.99;93.93
55733;BME280;41637;52.364;9.910;2023-01-30T01:33:51;100499.87;;;2.98;94.31
55733;BME280;41637;52.364;9.910;2023-01-30T01:36:18;100501.10;;;2.98;94.37
55733;BME280;41637;52.364;9.910;2023-01-30T01:39:05;100494.06;;;2.96;95.02
55733;BME280;41637;52.364;9.910;2023-01-30T01:41:32;100463.61;;;2.95;95.52
55733;BME280;41637;52.364;9.910;2023-01-30T01:44:08;100452.26;;;2.93;96.03
55733;BME280;41637;52.364;9.910;2023-01-30T01:46:47;100448.17;;;2.92;96.70
55733;BME280;41637;52.364;9.910;2023-01-30T01:51:51;100439.55;;;2.92;97.09
55733;BME280;41637;52.364;9.910;2023-01-30T01:54:47;100423.12;;;2.95;97.15
55733;BME280;41637;52.364;9.910;2023-01-30T01:57:23;100423.90;;;2.96;97.23
55733;BME280;41637;52.364;9.910;2023-01-30T02:00:02;100424.23;;;2.98;97.18
55733;BME280;41637;52.364;9.910;2023-01-30T02:02:32;100418.66;;;2.99;97.12
55733;BME280;41637;52.364;9.910;2023-01-30T02:05:01;100414.63;;;3.02;97.13
55733;BME280;41637;52.364;9.910;2023-01-30T02:10:12;100413.37;;;3.06;96.94
55733;BME280;41637;52.364;9.910;2023-01-30T02:12:41;100405.51;;;3.10;96.70
55733;BME280;41637;52.364;9.910;2023-01-30T02:15:09;100414.64;;;3.14;96.59
55733;BME280;41637;52.364;9.910;2023-01-30T02:17:37;100411.13;;;3.16;96.30
55733;BME280;41637;52.364;9.910;2023-01-30T02:28:32;100389.38;;;3.35;96.14
55733;BME280;41637;52.364;9.910;2023-01-30T02:31:26;100392.36;;;3.39;96.43
55733;BME280;41637;52.364;9.910;2023-01-30T02:34:21;100385.01;;;3.43;96.36
55733;BME280;41637;52.364;9.910;2023-01-30T02:45:37;100361.41;;;3.60;95.84
55733;BME280;41637;52.364;9.910;2023-01-30T02:48:15;100363.13;;;3.61;95.86
55733;BME280;41637;52.364;9.910;2023-01-30T02:50:48;100344.73;;;3.65;95.83
55733;BME280;41637;52.364;9.910;2023-01-30T02:53:17;100343.19;;;3.64;95.94
55733;BME280;41637;52.364;9.910;2023-01-30T02:55:45;100334.55;;;3.67;95.85
55733;BME280;41637;52.364;9.910;2023-01-30T02:58:12;100332.64;;;3.69;95.91
55733;BME280;41637;52.364;9.910;2023-01-30T03:03:31;100328.46;;;3.75;96.19
55733;BME280;41637;52.364;9.910;2023-01-30T03:09:06;100314.33;;;3.84;95.96
55733;BME280;41637;52.364;9.910;2023-01-30T03:11:48;100313.02;;;3.87;95.83
55733;BME280;41637;52.364;9.910;2023-01-30T03:14:31;100314.08;;;3.88;95.91
55733;BME280;41637;52.364;9.910;2023-01-30T03:17:01;100297.32;;;3.92;95.95
55733;BME280;41637;52.364;9.910;2023-01-30T03:19:30;100295.87;;;3.93;96.34
55733;BME280;41637;52.364;9.910;2023-01-30T03:21:57;100299.11;;;3.97;95.97
55733;BME280;41637;52.364;9.910;2023-01-30T03:24:24;100290.42;;;4.00;95.98
55733;BME280;41637;52.364;9.910;2023-01-30T03:27:01;100288.83;;;4.02;96.15
55733;BME280;41637;52.364;9.910;2023-01-30T03:29:29;100283.19;;;4.03;96.53
55733;BME280;41637;52.364;9.910;2023-01-30T03:31:56;100286.95;;;4.04;97.64
55733;BME280;41637;52.364;9.910;2023-01-30T03:34:23;100286.10;;;4.00;98.77
55733;BME280;41637;52.364;9.910;2023-01-30T03:36:50;100275.05;;;3.96;99.78
55733;BME280;41637;52.364;9.910;2023-01-30T03:39:17;100268.48;;;3.90;100.00
55733;BME280;41637;52.364;9.910;2023-01-30T03:41:45;100271.91;;;3.87;100.00
55733;BME280;41637;52.364;9.910;2023-01-30T03:44:12;100271.27;;;3.86;100.00
55733;BME280;41637;52.364;9.910;2023-01-30T03:46:39;100267.14;;;3.84;100.00
55733;BME280;41637;52.364;9.910;2023-01-30T03:49:06;100262.36;;;3.82;100.00
55733;BME280;41637;52.364;9.910;2023-01-30T03:51:33;100260.73;;;3.81;100.00
55733;BME280;41637;52.364;9.910;2023-01-30T03:54:00;100247.25;;;3.81;100.00
55733;BME280;41637;52.364;9.910;2023-01-30T03:56:33;100248.83;;;3.81;100.00
55733;BME280;41637;52.364;9.910;2023-01-30T03:59:00;100253.66;;;3.82;100.00
55733;BME280;41637;52.364;9.910;2023-01-30T04:01:26;100234.38;;;3.84;100.00
55733;BME280;41637;52.364;9.910;2023-01-30T04:03:53;100234.52;;;3.84;100.00
55733;BME280;41637;52.364;9.910;2023-01-30T04:06:21;100235.18;;;3.85;100.00
55733;BME280;41637;52.364;9.910;2023-01-30T04:08:53;100225.73;;;3.85;100.00
55733;BME280;41637;52.364;9.910;2023-01-30T04:11:29;100224.64;;;3.87;100.00
55733;BME280;41637;52.364;9.910;2023-01-30T04:13:56;100221.77;;;3.88;100.00
55733;BME280;41637;52.364;9.910;2023-01-30T04:16:24;100229.42;;;3.89;100.00
55733;BME280;41637;52.364;9.910;2023-01-30T04:18:52;100209.99;;;3.92;100.00
55733;BME280;41637;52.364;9.910;2023-01-30T04:21:24;100224.04;;;3.98;100.00
55733;BME280;41637;52.364;9.910;2023-01-30T04:23:53;100215.27;;;4.01;100.00
55733;BME280;41637;52.364;9.910;2023-01-30T04:26:23;100216.65;;;4.03;100.00
55733;BME280;41637;52.364;9.910;2023-01-30T04:28:55;100213.52;;;4.03;100.00
55733;BME280;41637;52.364;9.910;2023-01-30T04:31:23;100212.94;;;4.02;100.00
55733;BME280;41637;52.364;9.910;2023-01-30T04:33:53;100198.42;;;4.04;100.00
55733;BME280;41637;52.364;9.910;2023-01-30T04:36:25;100200.48;;;4.04;100.00
55733;BME280;41637;52.364;9.910;2023-01-30T04:38:54;100190.63;;;4.05;100.00
55733;BME280;41637;52.364;9.910;2023-01-30T04:41:27;100189.71;;;4.05;100.00
55733;BME280;41637;52.364;9.910;2023-01-30T04:46:54;100199.09;;;4.10;100.00
55733;BME280;41637;52.364;9.910;2023-01-30T04:49:20;100201.53;;;4.12;100.00
55733;BME280;41637;52.364;9.910;2023-01-30T04:51:55;100187.35;;;4.14;100.00
55733;BME280;41637;52.364;9.910;2023-01-30T04:54:24;100184.86;;;4.16;100.00
55733;BME280;41637;52.364;9.910;2023-01-30T04:56:51;100183.09;;;4.16;100.00
55733;BME280;41637;52.364;9.910;2023-01-30T04:59:33;100176.96;;;4.18;100.00
55733;BME280;41637;52.364;9.910;2023-01-30T05:02:21;100185.26;;;4.19;100.00
55733;BME280;41637;52.364;9.910;2023-01-30T05:04:52;100175.89;;;4.20;100.00
55733;BME280;41637;52.364;9.910;2023-01-30T05:07:31;100185.52;;;4.20;100.00
55733;BME280;41637;52.364;9.910;2023-01-30T05:09:59;100172.45;;;4.21;100.00
55733;BME280;41637;52.364;9.910;2023-01-30T05:12:28;100178.96;;;4.22;100.00
55733;BME280;41637;52.364;9.910;2023-01-30T05:14:56;100159.99;;;4.25;100.00
55733;BME280;41637;52.364;9.910;2023-01-30T05:17:23;100159.62;;;4.27;100.00
55733;BME280;41637;52.364;9.910;2023-01-30T05:20:11;100158.42;;;4.29;100.00
55733;BME280;41637;52.364;9.910;2023-01-30T05:23:27;100157.77;;;4.30;100.00
55733;BME280;41637;52.364;9.910;2023-01-30T05:26:07;100162.69;;;4.32;100.00
55733;BME280;41637;52.364;9.910;2023-01-30T05:28:58;100148.99;;;4.34;100.00
55733;BME280;41637;52.364;9.910;2023-01-30T05:31:24;100143.98;;;4.37;100.00
55733;BME280;41637;52.364;9.910;2023-01-30T05:33:52;100156.36;;;4.41;100.00
55733;BME280;41637;52.364;9.910;2023-01-30T05:36:20;100145.89;;;4.44;100.00
55733;BME280;41637;52.364;9.910;2023-01-30T05:38:47;100147.46;;;4.48;100.00
55733;BME280;41637;52.364;9.910;2023-01-30T05:41:20;100156.10;;;4.47;100.00
55733;BME280;41637;52.364;9.910;2023-01-30T05:43:48;100151.08;;;4.49;100.00
55733;BME280;41637;52.364;9.910;2023-01-30T05:46:16;100159.13;;;4.49;100.00
55733;BME280;41637;52.364;9.910;2023-01-30T05:48:43;100156.24;;;4.50;100.00
55733;BME280;41637;52.364;9.910;2023-01-30T05:51:22;100168.38;;;4.51;100.00
55733;BME280;41637;52.364;9.910;2023-01-30T05:53:50;100169.15;;;4.54;100.00
55733;BME280;41637;52.364;9.910;2023-01-30T05:56:17;100172.71;;;4.55;100.00
55733;BME280;41637;52.364;9.910;2023-01-30T05:58:52;100160.48;;;4.57;100.00
55733;BME280;41637;52.364;9.910;2023-01-30T06:01:20;100170.11;;;4.60;100.00
55733;BME280;41637;52.364;9.910;2023-01-30T06:03:47;100148.84;;;4.61;100.00
55733;BME280;41637;52.364;9.910;2023-01-30T06:06:14;100161.93;;;4.63;100.00
55733;BME280;41637;52.364;9.910;2023-01-30T06:08:43;100153.75;;;4.66;100.00
55733;BME280;41637;52.364;9.910;2023-01-30T06:11:16;100145.42;;;4.69;100.00
55733;BME280;41637;52.364;9.910;2023-01-30T06:13:54;100130.50;;;4.71;100.00
55733;BME280;41637;52.364;9.910;2023-01-30T06:19:51;100152.95;;;4.78;100.00
55733;BME280;41637;52.364;9.910;2023-01-30T06:22:33;100146.86;;;4.81;100.00
55733;BME280;41637;52.364;9.910;2023-01-30T06:25:03;100147.26;;;4.82;100.00
55733;BME280;41637;52.364;9.910;2023-01-30T06:27:53;100136.77;;;4.84;100.00
55733;BME280;41637;52.364;9.910;2023-01-30T06:30:23;100134.50;;;4.85;100.00
55733;BME280;41637;52.364;9.910;2023-01-30T06:32:51;100138.21;;;4.85;100.00
55733;BME280;41637;52.364;9.910;2023-01-30T06:35:49;100155.39;;;4.85;100.00
55733;BME280;41637;52.364;9.910;2023-01-30T06:38:16;100148.96;;;4.86;100.00
55733;BME280;41637;52.364;9.910;2023-01-30T06:40:48;100155.64;;;4.88;100.00
55733;BME280;41637;52.364;9.910;2023-01-30T06:43:18;100171.23;;;4.90;100.00
55733;BME280;41637;52.364;9.910;2023-01-30T06:46:00;100180.17;;;4.94;100.00
55733;BME280;41637;52.364;9.910;2023-01-30T06:48:28;100180.73;;;4.98;100.00
55733;BME280;41637;52.364;9.910;2023-01-30T06:51:06;100184.86;;;5.07;98.62
55733;BME280;41637;52.364;9.910;2023-01-30T06:53:36;100190.19;;;5.13;97.97
55733;BME280;41637;52.364;9.910;2023-01-30T06:56:06;100190.22;;;5.16;97.63
55733;BME280;41637;52.364;9.910;2023-01-30T06:58:33;100187.56;;;5.21;97.91
55733;BME280;41637;52.364;9.910;2023-01-30T07:01:11;100188.15;;;5.21;97.96
55733;BME280;41637;52.364;9.910;2023-01-30T07:03:45;100189.10;;;5.24;98.32
55733;BME280;41637;52.364;9.910;2023-01-30T07:06:14;100194.39;;;5.23;98.22
55733;BME280;41637;52.364;9.910;2023-01-30T07:08:40;100192.81;;;5.23;98.21
55733;BME280;41637;52.364;9.910;2023-01-30T07:11:10;100191.56;;;5.24;97.80
55733;BME280;41637;52.364;9.910;2023-01-30T07:13:36;100182.48;;;5.22;97.53
55733;BME280;41637;52.364;9.910;2023-01-30T07:16:04;100192.80;;;5.17;97.06
55733;BME280;41637;52.364;9.910;2023-01-30T07:18:34;100198.33;;;5.16;96.60
55733;BME280;41637;52.364;9.910;2023-01-30T07:21:01;100194.89;;;5.17;96.19
55733;BME280;41637;52.364;9.910;2023-01-30T07:23:28;100191.70;;;5.13;95.90
55733;BME280;41637;52.364;9.910;2023-01-30T07:26:03;100195.09;;;5.13;96.27
55733;BME280;41637;52.364;9.910;2023-01-30T07:28:32;100201.86;;;5.13;96.78
55733;BME280;41637;52.364;9.910;2023-01-30T07:30:59;100199.23;;;5.12;96.46
55733;BME280;41637;52.364;9.910;2023-01-30T07:33:26;100189.00;;;5.11;96.09
55733;BME280;41637;52.364;9.910;2023-01-30T07:35:54;100189.98;;;5.10;95.27
55733;BME280;41637;52.364;9.910;2023-01-30T07:38:21;100183.54;;;5.07;94.20
55733;BME280;41637;52.364;9.910;2023-01-30T07:40:48;100185.63;;;5.07;94.12
55733;BME280;41637;52.364;9.910;2023-01-30T07:43:14;100180.77;;;5.05;93.68
55733;BME280;41637;52.364;9.910;2023-01-30T07:45:46;100185.00;;;5.03;93.01
55733;BME280;41637;52.364;9.910;2023-01-30T07:48:22;100171.30;;;5.02;92.41
55733;BME280;41637;52.364;9.910;2023-01-30T07:50:49;100182.83;;;5.04;91.90
55733;BME280;41637;52.364;9.910;2023-01-30T07:53:16;100188.30;;;5.05;91.46
55733;BME280;41637;52.364;9.910;2023-01-30T07:55:49;100188.20;;;5.06;90.65
55733;BME280;41637;52.364;9.910;2023-01-30T07:58:18;100179.37;;;5.11;89.99
55733;BME280;41637;52.364;9.910;2023-01-30T08:00:45;100188.17;;;5.12;89.69
55733;BME280;41637;52.364;9.910;2023-01-30T08:03:13;100183.13;;;5.13;89.91
55733;BME280;41637;52.364;9.910;2023-01-30T08:05:41;100182.71;;;5.14;89.71
55733;BME280;41637;52.364;9.910;2023-01-30T08:08:07;100177.94;;;5.14;87.81
55733;BME280;41637;52.364;9.910;2023-01-30T08:10:34;100185.82;;;5.18;86.97
55733;BME280;41637;52.364;9.910;2023-01-30T08:13:10;100201.93;;;5.27;86.88
55733;BME280;41637;52.364;9.910;2023-01-30T08:15:37;100207.23;;;5.36;85.95
55733;BME280;41637;52.364;9.910;2023-01-30T08:18:04;100218.27;;;5.43;85.35
55733;BME280;41637;52.364;9.910;2023-01-30T08:20:32;100224.09;;;5.47;84.46
55733;BME280;41637;52.364;9.910;2023-01-30T08:22:59;100228.52;;;5.52;84.35
55733;BME280;41637;52.364;9.910;2023-01-30T08:25:27;100240.04;;;5.57;83.92
55733;BME280;41637;52.364;9.910;2023-01-30T08:27:55;100244.83;;;5.56;83.25
55733;BME280;41637;52.364;9.910;2023-01-30T08:30:23;100233.08;;;5.59;83.43
55733;BME280;41637;52.364;9.910;2023-01-30T08:32:51;100215.34;;;5.60;83.36
55733;BME280;41637;52.364;9.910;2023-01-30T08:35:17;100229.91;;;5.58;83.06
55733;BME280;41637;52.364;9.910;2023-01-30T08:37:45;100220.88;;;5.53;83.15
55733;BME280;41637;52.364;9.910;2023-01-30T08:40:12;100222.46;;;5.55;83.47
55733;BME280;41637;52.364;9.910;2023-01-30T08:42:39;100228.94;;;5.55;83.09
55733;BME280;41637;52.364;9.910;2023-01-30T08:45:07;100237.13;;;5.54;82.41
55733;BME280;41637;52.364;9.910;2023-01-30T08:47:33;100228.15;;;5.59;82.76
55733;BME280;41637;52.364;9.910;2023-01-30T08:50:01;100227.15;;;5.62;81.79
55733;BME280;41637;52.364;9.910;2023-01-30T08:52:28;100218.08;;;5.67;81.93
55733;BME280;41637;52.364;9.910;2023-01-30T08:54:56;100236.34;;;5.69;81.90
55733;BME280;41637;52.364;9.910;2023-01-30T08:57:23;100219.70;;;5.70;81.94
55733;BME280;41637;52.364;9.910;2023-01-30T08:59:50;100214.09;;;5.72;82.14
55733;BME280;41637;52.364;9.910;2023-01-30T09:02:17;100216.21;;;5.70;82.38
55733;BME280;41637;52.364;9.910;2023-01-30T09:04:44;100222.26;;;5.69;82.91
55733;BME280;41637;52.364;9.910;2023-01-30T09:07:19;100241.82;;;5.72;83.17
55733;BME280;41637;52.364;9.910;2023-01-30T09:09:47;100244.30;;;5.68;83.14
55733;BME280;41637;52.364;9.910;2023-01-30T09:12:15;100243.93;;;5.68;82.71
55733;BME280;41637;52.364;9.910;2023-01-30T09:14:42;100233.82;;;5.71;82.95
55733;BME280;41637;52.364;9.910;2023-01-30T09:17:09;100225.88;;;5.75;82.61
55733;BME280;41637;52.364;9.910;2023-01-30T09:19:37;100214.02;;;5.83;82.53
55733;BME280;41637;52.364;9.910;2023-01-30T09:22:04;100220.01;;;5.92;82.45
55733;BME280;41637;52.364;9.910;2023-01-30T09:24:33;100218.38;;;5.96;81.60
55733;BME280;41637;52.364;9.910;2023-01-30T09:26:59;100215.23;;;6.01;81.08
55733;BME280;41637;52.364;9.910;2023-01-30T09:29:27;100225.48;;;6.03;80.32
55733;BME280;41637;52.364;9.910;2023-01-30T09:31:55;100216.36;;;6.07;80.38
55733;BME280;41637;52.364;9.910;2023-01-30T09:34:23;100223.16;;;6.05;80.56
55733;BME280;41637;52.364;9.910;2023-01-30T09:36:55;100218.50;;;5.96;82.18
55733;BME280;41637;52.364;9.910;2023-01-30T09:39:22;100227.60;;;5.82;83.66
55733;BME280;41637;52.364;9.910;2023-01-30T09:47:41;100229.54;;;5.81;81.91
55733;BME280;41637;52.364;9.910;2023-01-30T09:50:22;100230.50;;;5.87;81.67
55733;BME280;41637;52.364;9.910;2023-01-30T09:55:30;100230.13;;;5.99;80.35
55733;BME280;41637;52.364;9.910;2023-01-30T09:57:59;100219.27;;;6.04;79.16
55733;BME280;41637;52.364;9.910;2023-01-30T10:00:37;100242.75;;;6.06;78.46
55733;BME280;41637;52.364;9.910;2023-01-30T10:05:44;100231.84;;;6.17;77.33
55733;BME280;41637;52.364;9.910;2023-01-30T10:11:13;100233.69;;;6.33;76.36
55733;BME280;41637;52.364;9.910;2023-01-30T10:16:31;100220.30;;;6.47;75.00
55733;BME280;41637;52.364;9.910;2023-01-30T10:19:35;100231.29;;;6.45;75.30
55733;BME280;41637;52.364;9.910;2023-01-30T10:22:23;100236.79;;;6.46;75.76
55733;BME280;41637;52.364;9.910;2023-01-30T10:27:30;100215.90;;;6.42;76.06
55733;BME280;41637;52.364;9.910;2023-01-30T10:30:02;100229.38;;;6.49;75.79
55733;BME280;41637;52.364;9.910;2023-01-30T10:32:55;100225.73;;;6.61;74.74
55733;BME280;41637;52.364;9.910;2023-01-30T10:35:26;100219.97;;;6.74;74.21
55733;BME280;41637;52.364;9.910;2023-01-30T10:40:38;100205.80;;;6.93;74.00
55733;BME280;41637;52.364;9.910;2023-01-30T10:43:23;100206.63;;;6.97;73.05
55733;BME280;41637;52.364;9.910;2023-01-30T10:46:07;100198.95;;;7.00;73.02
55733;BME280;41637;52.364;9.910;2023-01-30T10:54:16;100184.11;;;7.31;72.89
55733;BME280;41637;52.364;9.910;2023-01-30T10:59:22;100190.18;;;7.30;71.40
55733;BME280;41637;52.364;9.910;2023-01-30T11:01:58;100187.70;;;7.29;71.52
55733;BME280;41637;52.364;9.910;2023-01-30T11:04:55;100181.17;;;7.36;70.64
55733;BME280;41637;52.364;9.910;2023-01-30T11:07:26;100188.55;;;7.43;70.33
55733;BME280;41637;52.364;9.910;2023-01-30T11:09:57;100190.02;;;7.30;70.41
55733;BME280;41637;52.364;9.910;2023-01-30T11:12:24;100183.33;;;7.19;71.55
55733;BME280;41637;52.364;9.910;2023-01-30T11:14:59;100178.45;;;7.07;74.18
55733;BME280;41637;52.364;9.910;2023-01-30T11:17:36;100205.92;;;6.74;77.14
55733;BME280;41637;52.364;9.910;2023-01-30T11:20:19;100198.70;;;6.30;80.21
55733;BME280;41637;52.364;9.910;2023-01-30T11:22:50;100225.53;;;6.29;79.48
55733;BME280;41637;52.364;9.910;2023-01-30T11:25:19;100207.18;;;6.26;79.90
55733;BME280;41637;52.364;9.910;2023-01-30T11:27:54;100201.91;;;6.18;80.36
55733;BME280;41637;52.364;9.910;2023-01-30T11:30:26;100188.88;;;6.15;80.68
55733;BME280;41637;52.364;9.910;2023-01-30T11:33:23;100206.36;;;6.10;81.49
55733;BME280;41637;52.364;9.910;2023-01-30T11:36:27;100198.87;;;5.84;82.20
55733;BME280;41637;52.364;9.910;2023-01-30T11:39:02;100199.21;;;5.46;86.43
55733;BME280;41637;52.364;9.910;2023-01-30T11:41:30;100196.73;;;5.17;89.07
55733;BME280;41637;52.364;9.910;2023-01-30T11:44:02;100172.25;;;5.08;90.78
55733;BME280;41637;52.364;9.910;2023-01-30T11:46:33;100173.94;;;5.05;90.43
55733;BME280;41637;52.364;9.910;2023-01-30T11:49:04;100160.58;;;5.11;90.09
55733;BME280;41637;52.364;9.910;2023-01-30T11:51:52;100162.56;;;5.19;89.72
55733;BME280;41637;52.364;9.910;2023-01-30T11:54:34;100151.55;;;5.28;89.64
55733;BME280;41637;52.364;9.910;2023-01-30T11:57:10;100155.16;;;5.46;89.65
55733;BME280;41637;52.364;9.910;2023-01-30T11:59:45;100162.88;;;5.56;87.98
55733;BME280;41637;52.364;9.910;2023-01-30T12:02:23;100167.25;;;5.57;86.60
55733;BME280;41637;52.364;9.910;2023-01-30T12:04:54;100150.72;;;5.52;86.64
55733;BME280;41637;52.364;9.910;2023-01-30T12:07:29;100156.71;;;5.48;86.71
55733;BME280;41637;52.364;9.910;2023-01-30T12:09:57;100157.98;;;5.49;87.24
55733;BME280;41637;52.364;9.910;2023-01-30T12:12:44;100175.40;;;5.50;86.61
55733;BME280;41637;52.364;9.910;2023-01-30T12:15:24;100168.73;;;5.45;86.47
55733;BME280;41637;52.364;9.910;2023-01-30T12:18:07;100177.28;;;5.34;87.72
55733;BME280;41637;52.364;9.910;2023-01-30T12:20:55;100201.18;;;5.10;87.94
55733;BME280;41637;52.364;9.910;2023-01-30T12:23:42;100198.39;;;4.81;89.66
55733;BME280;41637;52.364;9.910;2023-01-30T12:29:30;100240.15;;;4.14;94.56
55733;BME280;41637;52.364;9.910;2023-01-30T12:32:11;100224.35;;;3.83;97.96
55733;BME280;41637;52.364;9.910;2023-01-30T12:34:40;100210.39;;;3.69;99.78
55733;BME280;41637;52.364;9.910;2023-01-30T12:37:27;100212.25;;;3.64;100.00
55733;BME280;41637;52.364;9.910;2023-01-30T12:42:58;100205.98;;;3.58;100.00
55733;BME280;41637;52.364;9.910;2023-01-30T12:45:31;100209.62;;;3.59;100.00
55733;BME280;41637;52.364;9.910;2023-01-30T12:51:14;100193.48;;;3.75;100.00
55733;BME280;41637;52.364;9.910;2023-01-30T12:59:17;100190.17;;;5.04;99.85
55733;BME280;41637;52.364;9.910;2023-01-30T13:04:41;100183.27;;;6.77;90.60
55733;BME280;41637;52.364;9.910;2023-01-30T13:07:33;100191.45;;;7.38;86.45
55733;BME280;41637;52.364;9.910;2023-01-30T13:13:24;100207.23;;;7.26;83.64
55733;BME280;41637;52.364;9.910;2023-01-30T13:16:05;100214.30;;;6.71;84.14
55733;BME280;41637;52.364;9.910;2023-01-30T13:18:51;100212.16;;;6.36;85.37
55733;BME280;41637;52.364;9.910;2023-01-30T13:21:30;100204.04;;;6.14;86.58
55733;BME280;41637;52.364;9.910;2023-01-30T13:24:13;100208.91;;;6.06;87.07
55733;BME280;41637;52.364;9.910;2023-01-30T13:26:44;100205.37;;;5.98;87.77
55733;BME280;41637;52.364;9.910;2023-01-30T13:29:38;100205.06;;;5.88;87.89
55733;BME280;41637;52.364;9.910;2023-01-30T13:32:10;100216.62;;;6.55;86.57
55733;BME280;41637;52.364;9.910;2023-01-30T13:34:45;100198.90;;;7.94;82.74
55733;BME280;41637;52.364;9.910;2023-01-30T13:37:16;100209.20;;;8.99;77.28
55733;BME280;41637;52.364;9.910;2023-01-30T13:39:54;100188.25;;;9.80;74.34
55733;BME280;41637;52.364;9.910;2023-01-30T13:42:58;100197.60;;;10.51;70.59
55733;BME280;41637;52.364;9.910;2023-01-30T13:45:31;100195.17;;;10.80;67.37
55733;BME280;41637;52.364;9.910;2023-01-30T13:48:25;100195.81;;;10.69;66.98
55733;BME280;41637;52.364;9.910;2023-01-30T13:51:01;100204.44;;;9.89;69.02
55733;BME280;41637;52.364;9.910;2023-01-30T13:56:23;100203.99;;;8.20;74.84
55733;BME280;41637;52.364;9.910;2023-01-30T14:07:20;100236.45;;;6.64;80.13
55733;BME280;41637;52.364;9.910;2023-01-30T14:10:00;100250.16;;;6.52;81.43
55733;BME280;41637;52.364;9.910;2023-01-30T14:12:40;100264.29;;;6.45;81.13
55733;BME280;41637;52.364;9.910;2023-01-30T14:18:12;100284.97;;;6.37;82.24
55733;BME280;41637;52.364;9.910;2023-01-30T14:20:46;100294.89;;;6.22;82.93
55733;BME280;41637;52.364;9.910;2023-01-30T14:23:28;100302.95;;;6.17;84.10
55733;BME280;41637;52.364;9.910;2023-01-30T14:25:57;100317.98;;;6.09;85.00
55733;BME280;41637;52.364;9.910;2023-01-30T14:31:01;100321.42;;;6.08;85.88
55733;BME280;41637;52.364;9.910;2023-01-30T14:33:47;100353.67;;;5.98;85.51
55733;BME280;41637;52.364;9.910;2023-01-30T14:38:41;100361.86;;;5.82;85.85
55733;BME280;41637;52.364;9.910;2023-01-30T14:41:24;100372.08;;;5.79;85.45
55733;BME280;41637;52.364;9.910;2023-01-30T14:43:52;100389.65;;;5.78;84.67
55733;BME280;41637;52.364;9.910;2023-01-30T14:56:43;100394.13;;;5.83;80.07
55733;BME280;41637;52.364;9.910;2023-01-30T15:01:58;100417.55;;;5.82;79.30
55733;BME280;41637;52.364;9.910;2023-01-30T15:04:37;100408.28;;;5.83;79.90
55733;BME280;41637;52.364;9.910;2023-01-30T15:07:13;100398.08;;;5.82;80.30
55733;BME280;41637;52.364;9.910;2023-01-30T15:09:59;100402.20;;;5.81;80.94
55733;BME280;41637;52.364;9.910;2023-01-30T15:13:01;100407.38;;;5.76;81.15
55733;BME280;41637;52.364;9.910;2023-01-30T15:18:34;100412.25;;;5.73;81.48
55733;BME280;41637;52.364;9.910;2023-01-30T15:21:25;100416.34;;;5.71;81.90
55733;BME280;41637;52.364;9.910;2023-01-30T15:26:38;100429.53;;;5.72;81.89
55733;BME280;41637;52.364;9.910;2023-01-30T15:31:57;100436.73;;;5.70;81.70
55733;BME280;41637;52.364;9.910;2023-01-30T15:34:31;100446.00;;;5.70;81.67